KADC

Wadena Municipal Airport

Wadena, Minnesota, USA
METAR KADC 191655Z AUTO 05006KT 10SM SCT013 21/18 A2994 RMK AO2
Observed Flight Rules
Aug-19 @ 16:55 UTC (19 minutes ago) Visual Flight Rules
Wind Visibility Clouds
50° at 6 knots 10 miles
  • Scattered at 1,300' AGL
Temperatures Readings
Current 21°C / 70°F
Dewpoint 18°C / 64°F
Humidity 83%
Altimeter 29.94" Hg
Pressure 1014 hPa
Elevation 418
METAR KADC 191655Z AUTO 05006KT 10SM SCT013 21/18 A2994 RMK AO2
Observed Flight Rules
Aug-19 @ 16:55 UTC
(19 minutes ago)
VFR
Wind Visibility
50° at 6 knots 10 miles
Clouds
  • Scattered at 1,300' AGL
Temperature Dewpoint
21°C / 70°F 18°C / 64°F
Humidity Altimeter Pressure
83% 29.94" Hg 1014 hPa